createdAt,value
2022-09-21T00:01:32.006Z,68.70
2022-09-21T00:04:01.303Z,68.60
2022-09-21T00:06:31.115Z,68.50
2022-09-21T00:08:59.089Z,68.50
2022-09-21T00:11:29.878Z,68.60
2022-09-21T00:14:00.697Z,68.60
2022-09-21T00:16:29.482Z,68.80
2022-09-21T00:18:57.383Z,68.70
2022-09-21T00:21:25.381Z,68.50
2022-09-21T00:23:54.230Z,68.40
2022-09-21T00:26:24.746Z,68.40
2022-09-21T00:28:55.419Z,68.30
2022-09-21T00:31:23.467Z,68.40
2022-09-21T00:33:52.403Z,68.60
2022-09-21T00:36:22.486Z,68.80
2022-09-21T00:38:52.435Z,68.80
2022-09-21T00:41:21.434Z,68.90
2022-09-21T00:44:07.085Z,68.70
2022-09-21T00:46:39.957Z,68.50
2022-09-21T00:49:08.389Z,68.30
2022-09-21T00:51:37.139Z,68.80
2022-09-21T00:54:09.098Z,68.90
2022-09-21T00:56:38.151Z,68.80
2022-09-21T00:59:07.236Z,69.20
2022-09-21T01:01:38.304Z,69.00
2022-09-21T01:04:06.970Z,68.50
2022-09-21T01:06:35.675Z,68.90
2022-09-21T01:09:03.524Z,68.60
2022-09-21T01:11:39.444Z,68.40
2022-09-21T01:14:25.714Z,68.10
2022-09-21T01:17:03.435Z,68.30
2022-09-21T01:20:06.491Z,68.50
2022-09-21T01:22:47.133Z,68.30
2022-09-21T01:25:28.838Z,68.00
2022-09-21T01:28:08.653Z,67.90
2022-09-21T01:30:43.729Z,68.10
2022-09-21T01:33:18.805Z,68.70
2022-09-21T01:35:50.155Z,68.30
2022-09-21T01:38:23.907Z,68.10
2022-09-21T01:40:56.840Z,68.00
2022-09-21T01:43:35.012Z,68.00
2022-09-21T01:46:07.167Z,67.80
2022-09-21T01:48:39.471Z,68.10
2022-09-21T01:51:11.069Z,68.30
2022-09-21T01:53:43.127Z,68.10
2022-09-21T01:56:14.015Z,68.10
2022-09-21T01:58:46.908Z,68.30
2022-09-21T02:01:20.532Z,68.00
2022-09-21T02:03:52.267Z,67.80
2022-09-21T02:06:20.656Z,67.50
2022-09-21T02:08:49.369Z,67.90
2022-09-21T02:11:17.204Z,68.10
2022-09-21T02:13:49.055Z,68.50
2022-09-21T02:16:35.479Z,68.10
2022-09-21T02:19:13.188Z,67.80
2022-09-21T02:21:50.262Z,68.00
2022-09-21T02:24:25.098Z,67.70
2022-09-21T02:27:00.472Z,67.90
2022-09-21T02:29:36.310Z,68.00
2022-09-21T02:32:11.895Z,68.10
2022-09-21T02:34:46.369Z,68.00
2022-09-21T02:37:22.347Z,67.90
2022-09-21T02:39:59.402Z,67.70
2022-09-21T02:42:30.802Z,67.50
2022-09-21T02:45:05.826Z,67.60
2022-09-21T02:47:40.032Z,67.60
2022-09-21T02:50:13.918Z,67.30
2022-09-21T02:52:44.476Z,67.90
2022-09-21T02:55:14.132Z,68.10
2022-09-21T02:57:42.463Z,68.10
2022-09-21T03:00:12.113Z,68.00
2022-09-21T03:02:44.836Z,67.90
2022-09-21T03:05:14.011Z,67.70
2022-09-21T03:07:42.473Z,67.50
2022-09-21T03:10:11.040Z,67.50
2022-09-21T03:12:38.865Z,67.20
2022-09-21T03:15:07.426Z,67.20
2022-09-21T03:17:35.161Z,67.40
2022-09-21T03:20:04.756Z,67.20
2022-09-21T03:22:32.541Z,67.20
2022-09-21T03:25:00.314Z,67.30
2022-09-21T03:27:28.081Z,67.50
2022-09-21T03:29:59.985Z,68.10
2022-09-21T03:32:29.701Z,67.80
2022-09-21T03:34:57.547Z,67.50
2022-09-21T03:37:26.727Z,67.50
2022-09-21T03:39:54.488Z,67.40
2022-09-21T03:42:22.318Z,67.20
2022-09-21T03:44:50.097Z,67.20
2022-09-21T03:47:17.865Z,67.20
2022-09-21T03:49:45.575Z,66.90
2022-09-21T03:52:13.405Z,66.90
2022-09-21T03:54:42.561Z,67.20
2022-09-21T03:57:10.329Z,66.80
2022-09-21T03:59:38.064Z,66.70
2022-09-21T04:02:06.017Z,67.10
2022-09-21T04:04:33.804Z,66.90
2022-09-21T04:07:01.641Z,66.80
2022-09-21T04:09:29.395Z,66.80
2022-09-21T04:11:58.677Z,67.00
2022-09-21T04:14:27.010Z,67.00
2022-09-21T04:16:54.818Z,66.80
2022-09-21T04:19:22.823Z,66.90
2022-09-21T04:21:51.332Z,66.70
2022-09-21T04:24:19.589Z,67.10
2022-09-21T04:26:47.629Z,67.20
2022-09-21T04:29:17.209Z,67.50
2022-09-21T04:31:45.040Z,67.60
2022-09-21T04:34:14.588Z,67.50
2022-09-21T04:36:42.404Z,67.00
2022-09-21T04:39:10.154Z,67.40
2022-09-21T04:41:38.029Z,67.70
2022-09-21T04:44:05.995Z,67.70
2022-09-21T04:46:35.359Z,67.50
2022-09-21T04:49:03.143Z,67.10
2022-09-21T04:51:31.477Z,67.40
2022-09-21T04:53:59.790Z,67.40
2022-09-21T04:56:27.628Z,67.10
2022-09-21T04:58:55.458Z,67.10
2022-09-21T05:01:23.448Z,66.90
2022-09-21T05:03:52.836Z,67.00
2022-09-21T05:06:20.781Z,66.80
2022-09-21T05:09:06.342Z,66.70
2022-09-21T05:11:34.084Z,66.80
2022-09-21T05:14:01.878Z,67.00
2022-09-21T05:16:29.677Z,67.20
2022-09-21T05:18:58.753Z,67.30
2022-09-21T05:21:27.051Z,67.40
2022-09-21T05:23:55.847Z,67.20
2022-09-21T05:26:23.863Z,67.20
2022-09-21T05:28:52.105Z,67.40
2022-09-21T05:31:33.585Z,67.50
2022-09-21T05:34:10.986Z,67.70
2022-09-21T05:36:49.455Z,67.60
2022-09-21T05:39:17.744Z,67.70
2022-09-21T05:41:45.997Z,67.70
2022-09-21T05:44:15.236Z,67.80
2022-09-21T05:46:52.699Z,67.70
2022-09-21T05:49:37.353Z,67.40
2022-09-21T05:52:14.860Z,67.70
2022-09-21T05:54:53.338Z,67.60
2022-09-21T05:57:30.773Z,67.60
2022-09-21T06:00:08.824Z,67.60
2022-09-21T06:02:55.636Z,67.30
2022-09-21T06:05:25.783Z,67.40
2022-09-21T06:07:53.597Z,68.20
2022-09-21T06:10:21.449Z,70.10
2022-09-21T06:12:49.203Z,70.10
2022-09-21T06:15:17.707Z,69.50
2022-09-21T06:17:45.540Z,69.30
2022-09-21T06:20:13.392Z,67.90
2022-09-21T06:22:42.506Z,69.20
2022-09-21T06:25:10.716Z,69.30
2022-09-21T06:27:38.516Z,70.80
2022-09-21T06:30:10.037Z,70.10
2022-09-21T06:32:37.772Z,68.70
2022-09-21T06:35:06.272Z,68.70
2022-09-21T06:37:34.118Z,69.90
2022-09-21T06:40:03.603Z,70.10
2022-09-21T06:42:31.483Z,69.80
2022-09-21T06:44:59.400Z,68.50
2022-09-21T06:47:27.143Z,68.70
2022-09-21T06:49:54.861Z,68.20
2022-09-21T06:52:22.666Z,68.60
2022-09-21T06:54:50.475Z,68.30
2022-09-21T06:57:19.557Z,70.00
2022-09-21T06:59:47.413Z,71.10
2022-09-21T07:02:15.328Z,72.10
2022-09-21T07:04:43.990Z,74.40
2022-09-21T07:07:11.810Z,76.10
2022-09-21T07:12:29.172Z,77.90
2022-09-21T07:14:57.100Z,78.10
2022-09-21T07:17:24.975Z,77.20
2022-09-21T07:19:52.727Z,76.70
2022-09-21T07:22:20.464Z,75.40
2022-09-21T07:24:48.289Z,74.90
2022-09-21T07:27:16.086Z,75.30
2022-09-21T07:29:45.189Z,75.10
2022-09-21T07:32:13.835Z,74.30
2022-09-21T07:34:41.592Z,72.50
2022-09-21T07:37:09.551Z,71.50
2022-09-21T07:39:38.800Z,70.00
2022-09-21T07:42:07.024Z,69.00
2022-09-21T07:44:35.086Z,67.90
2022-09-21T07:47:04.340Z,67.70
2022-09-21T07:49:32.196Z,67.20
2022-09-21T07:52:03.853Z,66.70
2022-09-21T07:54:33.645Z,66.70
2022-09-21T07:57:19.214Z,66.20
2022-09-21T07:59:47.078Z,65.40
2022-09-21T08:02:16.258Z,65.70
2022-09-21T08:04:44.080Z,65.50
2022-09-21T08:07:12.485Z,64.80
2022-09-21T08:09:40.721Z,64.90
2022-09-21T08:12:08.857Z,64.60
2022-09-21T08:14:36.617Z,64.70
2022-09-21T08:17:04.453Z,64.50
2022-09-21T08:19:34.548Z,64.60
2022-09-21T08:22:02.353Z,64.30
2022-09-21T08:24:31.257Z,64.10
2022-09-21T08:26:59.048Z,63.80
2022-09-21T08:29:27.576Z,63.70
2022-09-21T08:31:55.488Z,64.00
2022-09-21T08:34:24.116Z,63.30
2022-09-21T08:36:55.757Z,63.80
2022-09-21T08:39:23.836Z,63.60
2022-09-21T08:42:01.576Z,63.80
2022-09-21T08:44:33.936Z,63.50
2022-09-21T08:47:07.483Z,64.00
2022-09-21T08:49:37.910Z,63.60
2022-09-21T08:52:15.324Z,63.60
2022-09-21T08:54:49.948Z,63.60
2022-09-21T08:57:19.220Z,63.50
2022-09-21T08:59:48.705Z,63.90
2022-09-21T09:02:38.331Z,64.10
2022-09-21T09:05:24.708Z,63.80
2022-09-21T09:08:19.432Z,63.50
2022-09-21T09:10:59.683Z,63.30
2022-09-21T09:13:49.459Z,63.50
2022-09-21T09:16:25.505Z,64.20
2022-09-21T09:18:55.790Z,63.90
2022-09-21T09:21:31.865Z,65.10
2022-09-21T09:24:05.129Z,64.50
2022-09-21T09:26:39.748Z,64.80
2022-09-21T09:29:18.320Z,64.40
2022-09-21T09:31:46.747Z,64.10
2022-09-21T09:34:20.685Z,64.20
2022-09-21T09:36:58.766Z,62.90
2022-09-21T09:39:30.800Z,62.70
2022-09-21T09:42:31.597Z,62.20
2022-09-21T09:45:19.637Z,63.20
2022-09-21T09:48:04.187Z,62.90
2022-09-21T09:50:35.648Z,62.90
2022-09-21T09:53:07.300Z,61.50
2022-09-21T09:55:43.579Z,61.50
2022-09-21T09:58:19.048Z,60.70
2022-09-21T10:00:54.181Z,60.10
2022-09-21T10:03:24.321Z,59.40
2022-09-21T10:05:52.645Z,59.50
2022-09-21T10:08:41.931Z,59.70
2022-09-21T10:11:13.002Z,60.00
2022-09-21T10:13:43.154Z,60.50
2022-09-21T10:16:15.228Z,60.10
2022-09-21T10:18:48.401Z,60.60
2022-09-21T10:21:24.076Z,61.40
2022-09-21T10:23:56.186Z,59.70
2022-09-21T10:26:25.358Z,60.40
2022-09-21T10:28:58.275Z,60.70
2022-09-21T10:31:27.725Z,60.20
2022-09-21T10:34:07.470Z,61.20
2022-09-21T10:36:36.584Z,59.60
2022-09-21T10:39:25.751Z,60.70
2022-09-21T10:41:59.322Z,60.70
2022-09-21T10:44:30.738Z,60.00
2022-09-21T10:47:01.872Z,59.60
2022-09-21T10:49:30.318Z,60.00
2022-09-21T10:52:00.012Z,60.30
2022-09-21T10:54:30.161Z,58.60
2022-09-21T10:57:03.172Z,58.80
2022-09-21T10:59:32.779Z,59.90
2022-09-21T11:02:02.967Z,59.30
2022-09-21T11:04:41.558Z,58.90
2022-09-21T11:07:17.250Z,59.80
2022-09-21T11:09:51.683Z,59.90
2022-09-21T11:12:40.218Z,60.70
2022-09-21T11:15:17.924Z,59.90
2022-09-21T11:17:50.347Z,59.50
2022-09-21T11:20:28.980Z,59.20
2022-09-21T11:23:05.281Z,59.40
2022-09-21T11:25:41.945Z,59.00
2022-09-21T11:28:19.378Z,59.50
2022-09-21T11:31:21.132Z,59.60
2022-09-21T11:34:04.824Z,59.30
2022-09-21T11:36:42.212Z,60.60
2022-09-21T11:39:19.839Z,61.60
2022-09-21T11:42:00.290Z,60.80
2022-09-21T11:44:41.452Z,61.10
2022-09-21T11:47:29.213Z,61.40
2022-09-21T11:50:36.628Z,61.70
2022-09-21T11:53:25.309Z,62.20
2022-09-21T11:56:15.771Z,62.60
2022-09-21T11:58:57.598Z,62.50
2022-09-21T12:01:43.539Z,62.70
2022-09-21T12:04:28.707Z,62.50
2022-09-21T12:07:07.872Z,63.10
2022-09-21T12:09:52.647Z,63.30
2022-09-21T12:12:24.584Z,64.20
2022-09-21T12:14:59.559Z,63.90
2022-09-21T12:17:38.392Z,62.80
2022-09-21T12:20:13.106Z,63.70
2022-09-21T12:22:44.560Z,64.50
2022-09-21T12:25:17.869Z,63.60
2022-09-21T12:27:50.272Z,63.00
2022-09-21T12:30:20.913Z,62.90
2022-09-21T12:32:58.172Z,60.90
2022-09-21T12:35:30.314Z,60.70
2022-09-21T12:38:04.016Z,61.00
2022-09-21T12:40:38.979Z,60.80
2022-09-21T12:43:17.100Z,60.60
2022-09-21T12:45:52.013Z,60.70
2022-09-21T12:48:31.631Z,61.80
2022-09-21T12:51:06.386Z,61.30
2022-09-21T12:53:37.679Z,61.40
2022-09-21T12:56:10.243Z,61.40
2022-09-21T12:58:58.403Z,61.60
2022-09-21T13:01:32.616Z,61.10
2022-09-21T13:04:28.906Z,61.50
2022-09-21T13:07:20.433Z,62.00
2022-09-21T13:09:50.543Z,62.50
2022-09-21T13:12:22.655Z,61.90
2022-09-21T13:14:52.735Z,61.90
2022-09-21T13:17:24.299Z,62.60
2022-09-21T13:20:02.359Z,62.00
2022-09-21T13:22:33.329Z,62.20
2022-09-21T13:25:09.271Z,62.90
2022-09-21T13:28:15.011Z,63.80
2022-09-21T13:30:45.087Z,62.30
2022-09-21T13:33:38.775Z,62.30
2022-09-21T13:36:27.580Z,62.00
2022-09-21T13:39:20.582Z,60.90
2022-09-21T13:42:04.191Z,61.10
2022-09-21T13:44:43.484Z,61.10
2022-09-21T13:47:14.438Z,61.60
2022-09-21T13:49:50.666Z,61.50
2022-09-21T13:52:40.333Z,62.40
2022-09-21T13:55:29.027Z,62.50
2022-09-21T13:57:59.786Z,63.20
2022-09-21T14:00:36.899Z,63.00
2022-09-21T14:03:18.796Z,62.00
2022-09-21T14:05:48.629Z,63.10
2022-09-21T14:08:25.784Z,62.30
2022-09-21T14:10:56.953Z,62.40
2022-09-21T14:13:29.467Z,61.80
2022-09-21T14:16:52.027Z,61.70
2022-09-21T14:20:02.859Z,61.60
2022-09-21T14:22:40.955Z,61.60
2022-09-21T14:25:50.661Z,61.60
2022-09-21T14:28:20.617Z,60.90
2022-09-21T14:30:56.626Z,61.20
2022-09-21T14:33:31.495Z,61.30
2022-09-21T14:36:03.464Z,61.10
2022-09-21T14:38:37.339Z,61.00
2022-09-21T14:41:08.708Z,61.20
2022-09-21T14:43:39.678Z,61.10
2022-09-21T14:46:25.457Z,61.20
2022-09-21T14:49:06.795Z,61.10
2022-09-21T14:51:45.638Z,61.90
2022-09-21T14:54:31.299Z,62.10
2022-09-21T14:57:35.127Z,61.80
2022-09-21T15:00:23.249Z,61.10
2022-09-21T15:03:06.176Z,61.80
2022-09-21T15:05:38.347Z,61.90
2022-09-21T15:08:49.894Z,61.90
2022-09-21T15:11:24.986Z,62.10
2022-09-21T15:14:20.608Z,61.60
2022-09-21T15:16:51.673Z,60.70
2022-09-21T15:19:26.073Z,61.20
2022-09-21T15:21:55.485Z,61.90
2022-09-21T15:24:27.685Z,62.20
2022-09-21T15:27:03.464Z,62.40
2022-09-21T15:29:34.457Z,62.10
2022-09-21T15:32:02.691Z,60.90
2022-09-21T15:34:31.087Z,60.90
2022-09-21T15:37:09.186Z,61.20
2022-09-21T15:39:37.031Z,61.20
2022-09-21T15:42:19.581Z,61.90
2022-09-21T15:44:50.462Z,61.70
2022-09-21T15:47:21.761Z,61.50
2022-09-21T15:49:51.650Z,61.30
2022-09-21T15:52:27.612Z,61.00
2022-09-21T15:55:00.304Z,61.20
2022-09-21T15:57:39.168Z,60.80
2022-09-21T16:00:22.310Z,61.20
2022-09-21T16:03:04.125Z,61.70
2022-09-21T16:05:34.348Z,61.20
2022-09-21T16:08:07.172Z,60.90
2022-09-21T16:10:40.991Z,60.50
2022-09-21T16:13:38.926Z,59.80
2022-09-21T16:16:10.614Z,60.40
2022-09-21T16:18:44.305Z,61.60
2022-09-21T16:21:23.432Z,62.00
2022-09-21T16:23:54.621Z,62.00
2022-09-21T16:26:25.718Z,64.20
2022-09-21T16:29:19.303Z,65.80
2022-09-21T16:31:50.326Z,66.00
2022-09-21T16:34:36.743Z,66.60
2022-09-21T16:37:25.106Z,67.60
2022-09-21T16:39:53.847Z,68.40
2022-09-21T16:42:22.873Z,68.40
2022-09-21T16:44:51.317Z,67.80
2022-09-21T16:47:25.217Z,68.20
2022-09-21T16:49:56.295Z,68.20
2022-09-21T16:52:24.755Z,68.20
2022-09-21T16:54:52.624Z,68.10
2022-09-21T16:57:21.326Z,68.10
2022-09-21T16:59:50.223Z,68.40
2022-09-21T17:02:19.839Z,68.10
2022-09-21T17:04:48.310Z,68.50
2022-09-21T17:07:18.808Z,68.50
2022-09-21T17:09:48.175Z,68.80
2022-09-21T17:12:18.112Z,69.00
2022-09-21T17:14:47.283Z,68.90
2022-09-21T17:17:22.173Z,69.20
2022-09-21T17:19:53.853Z,69.40
2022-09-21T17:22:24.965Z,69.60
2022-09-21T17:24:54.645Z,69.60
2022-09-21T17:27:25.199Z,69.50
2022-09-21T17:29:55.098Z,69.40
2022-09-21T17:32:25.257Z,69.20
2022-09-21T17:34:58.530Z,69.60
2022-09-21T17:37:26.730Z,69.60
2022-09-21T17:39:54.531Z,69.80
2022-09-21T17:42:25.567Z,70.20
2022-09-21T17:45:12.278Z,70.20
2022-09-21T17:47:42.455Z,70.20
2022-09-21T17:50:22.819Z,70.30
2022-09-21T17:53:08.900Z,70.60
2022-09-21T17:55:37.373Z,70.70
2022-09-21T17:58:39.763Z,70.70
2022-09-21T18:01:09.465Z,70.70
2022-09-21T18:03:41.010Z,71.70
2022-09-21T18:06:10.253Z,71.00
2022-09-21T18:08:40.200Z,71.10
2022-09-21T18:11:29.356Z,71.00
2022-09-21T18:14:05.501Z,71.40
2022-09-21T18:16:40.902Z,70.70
2022-09-21T18:19:26.636Z,71.50
2022-09-21T18:22:03.070Z,71.40
2022-09-21T18:24:33.593Z,71.70
2022-09-21T18:27:02.318Z,71.50
2022-09-21T18:29:39.951Z,71.70
2022-09-21T18:32:28.893Z,71.40
2022-09-21T18:35:16.451Z,71.40
2022-09-21T18:37:56.065Z,71.80
2022-09-21T18:40:31.290Z,71.70
2022-09-21T18:43:06.084Z,71.80
2022-09-21T18:45:38.567Z,71.70
2022-09-21T18:48:29.525Z,71.80
2022-09-21T18:51:04.765Z,71.40
2022-09-21T18:53:44.786Z,71.60
2022-09-21T18:56:13.431Z,71.80
2022-09-21T18:58:42.667Z,71.50
2022-09-21T19:01:13.193Z,71.80
2022-09-21T19:03:43.316Z,72.60
2022-09-21T19:06:27.245Z,71.70
2022-09-21T19:09:03.428Z,71.70
2022-09-21T19:11:38.060Z,72.00
2022-09-21T19:14:14.601Z,72.40
2022-09-21T19:16:53.022Z,72.20
2022-09-21T19:19:32.335Z,72.30
2022-09-21T19:22:07.741Z,72.40
2022-09-21T19:24:44.021Z,72.50
2022-09-21T19:27:19.147Z,72.60
2022-09-21T19:29:57.069Z,72.60
2022-09-21T19:32:35.816Z,72.60
2022-09-21T19:35:16.609Z,72.80
2022-09-21T19:37:47.024Z,72.70
2022-09-21T19:40:15.582Z,72.90
2022-09-21T19:43:03.775Z,73.20
2022-09-21T19:45:45.012Z,73.10
2022-09-21T19:48:16.068Z,73.40
2022-09-21T19:50:48.361Z,73.20
2022-09-21T19:53:50.213Z,73.00
2022-09-21T19:56:36.245Z,73.00
2022-09-21T19:59:21.900Z,72.90
2022-09-21T20:01:55.922Z,73.00
2022-09-21T20:04:29.970Z,73.20
2022-09-21T20:07:03.098Z,73.30
2022-09-21T20:09:38.115Z,73.20
2022-09-21T20:12:17.650Z,73.20
2022-09-21T20:14:49.292Z,73.10
2022-09-21T20:17:22.068Z,73.20
2022-09-21T20:19:56.816Z,73.00
2022-09-21T20:22:34.199Z,73.90
2022-09-21T20:25:07.918Z,73.80
2022-09-21T20:27:39.712Z,73.50
2022-09-21T20:30:10.106Z,73.00
2022-09-21T20:32:39.760Z,73.00
2022-09-21T20:35:15.868Z,73.40
2022-09-21T20:37:44.167Z,73.30
2022-09-21T20:40:14.056Z,73.10
2022-09-21T20:42:43.113Z,73.30
2022-09-21T20:45:13.186Z,73.30
2022-09-21T20:47:41.201Z,73.60
2022-09-21T20:50:11.462Z,73.40
2022-09-21T20:52:41.361Z,73.50
2022-09-21T20:55:10.552Z,73.40
2022-09-21T20:57:40.360Z,73.10
2022-09-21T21:00:15.812Z,73.30
2022-09-21T21:02:44.143Z,73.50
2022-09-21T21:05:12.081Z,73.50
2022-09-21T21:07:43.321Z,73.60
2022-09-21T21:10:14.043Z,73.50
2022-09-21T21:12:43.389Z,73.60
2022-09-21T21:15:12.369Z,73.70
2022-09-21T21:17:41.038Z,73.70
2022-09-21T21:20:10.383Z,73.50
2022-09-21T21:22:38.303Z,73.90
2022-09-21T21:25:06.727Z,73.90
2022-09-21T21:27:35.772Z,74.10
2022-09-21T21:30:06.860Z,73.70
2022-09-21T21:32:35.291Z,74.10
2022-09-21T21:35:03.562Z,73.80
2022-09-21T21:37:31.557Z,73.70
2022-09-21T21:39:59.428Z,73.30
2022-09-21T21:42:29.552Z,73.20
2022-09-21T21:44:57.528Z,74.10
2022-09-21T21:47:42.040Z,73.60
2022-09-21T21:50:10.717Z,73.20
2022-09-21T21:52:38.885Z,73.60
2022-09-21T21:55:07.751Z,73.50
2022-09-21T21:57:35.700Z,73.60
2022-09-21T22:00:05.579Z,73.70
2022-09-21T22:02:35.114Z,73.70
2022-09-21T22:05:02.922Z,73.60
2022-09-21T22:07:30.632Z,73.80
2022-09-21T22:09:58.494Z,73.60
2022-09-21T22:12:26.320Z,73.60
2022-09-21T22:14:54.111Z,73.60
2022-09-21T22:17:21.825Z,73.70
2022-09-21T22:19:51.333Z,73.80
2022-09-21T22:22:19.265Z,73.60
2022-09-21T22:24:47.952Z,73.60
2022-09-21T22:27:16.337Z,73.60
2022-09-21T22:29:44.369Z,73.80
2022-09-21T22:32:12.134Z,73.50
2022-09-21T22:34:39.860Z,73.50
2022-09-21T22:37:08.956Z,73.40
2022-09-21T22:39:36.743Z,73.60
2022-09-21T22:42:05.071Z,73.30
2022-09-21T22:44:32.843Z,73.50
2022-09-21T22:47:00.568Z,73.80
2022-09-21T22:49:28.366Z,73.50
2022-09-21T22:51:56.145Z,73.50
2022-09-21T22:54:26.555Z,73.20
2022-09-21T22:56:54.285Z,73.20
2022-09-21T22:59:22.079Z,73.00
2022-09-21T23:01:49.843Z,72.90
2022-09-21T23:04:18.000Z,72.70
2022-09-21T23:06:46.300Z,72.90
2022-09-21T23:09:16.549Z,72.70
2022-09-21T23:11:48.028Z,72.80
2022-09-21T23:14:16.766Z,72.90
2022-09-21T23:16:45.036Z,73.10
2022-09-21T23:19:16.175Z,72.70
2022-09-21T23:21:45.385Z,72.60
2022-09-21T23:24:13.906Z,72.50
2022-09-21T23:26:41.799Z,72.40
2022-09-21T23:29:14.828Z,72.50
2022-09-21T23:31:45.300Z,72.20
2022-09-21T23:34:14.282Z,72.10
2022-09-21T23:36:43.157Z,72.00
2022-09-21T23:39:12.626Z,72.10
2022-09-21T23:41:40.546Z,72.20
2022-09-21T23:44:08.645Z,72.20
2022-09-21T23:46:39.554Z,72.30
2022-09-21T23:49:07.765Z,72.50
2022-09-21T23:51:35.815Z,72.80
2022-09-21T23:54:04.404Z,72.40
2022-09-21T23:56:32.881Z,72.50
2022-09-21T23:59:01.377Z,72.40
